Time;durP1;ratioP1;P1;durP2;ratioP2;P2;SDS_P1;SDS_P2;PMS_P1;PMS_P2;Temp;Humidity;BMP_temperature;BMP_pressure;BME280_temperature;BME280_humidity;BME280_pressure;Samples;Min_cycle;Max_cycle;Signal;HPM_P1;HPM_P2
2023/08/08 00:02:25;;;;;;;;;;;;;;;;;;5078914;28;19932;-81
2023/08/08 00:04:50;;;;;;;;;;;;;;;;;;5100106;28;19982;-82
2023/08/08 00:07:16;;;;;;;;;;;;;;;;;;5081219;27;20380;-80
2023/08/08 00:09:42;;;;;;;;;;;;;;;;;;5100807;28;20375;-83
2023/08/08 00:12:08;;;;;;;;;;;;;;;;;;5067483;28;19966;-81
2023/08/08 00:14:34;;;;;;;;;;;;;;;;;;5095524;28;20018;-82
2023/08/08 00:17:00;;;;;;;;;;;;;;;;;;5092381;28;19923;-80
2023/08/08 00:19:26;;;;;;;;;;;;;;;;;;5073759;28;19938;-81
2023/08/08 00:21:52;;;;;;;;;;;;;;;;;;5090562;28;19927;-82
2023/08/08 00:24:18;;;;;;;;;;;;;;;;;;5073078;28;20537;-81
2023/08/08 00:26:43;;;;;;;;;;;;;;;;;;5095402;28;19962;-79
2023/08/08 00:29:09;;;;;;;;;;;;;;;;;;5093367;28;20005;-81
2023/08/08 00:31:35;;;;;;;;;;;;;;;;;;5094441;28;19973;-81
2023/08/08 00:34:01;;;;;;;;;;;;;;;;;;5090694;28;19920;-82
2023/08/08 00:36:27;;;;;;;;;;;;;;;;;;5091908;28;19931;-81
2023/08/08 00:38:53;;;;;;;;;;;;;;;;;;5072056;28;20389;-81
2023/08/08 00:41:19;;;;;;;;;;;;;;;;;;5072237;28;19928;-81
2023/08/08 00:43:45;;;;;;;;;;;;;;;;;;5072463;28;20010;-80
2023/08/08 00:46:11;;;;;;;;;;;;;;;;;;5073810;28;20516;-81
2023/08/08 00:48:37;;;;;;;;;;;;;;;;;;5091319;28;19957;-81
2023/08/08 00:51:03;;;;;;;;;;;;;;;;;;5077838;28;19981;-82
2023/08/08 00:53:31;;;;;;;;;;;;;;;;;;5093401;28;19982;-81
2023/08/08 00:55:57;;;;;;;;;;;;;;;;;;5110793;27;19924;-81
2023/08/08 00:58:23;;;;;;;;;;;;;;;;;;5105355;27;19927;-81
2023/08/08 01:00:48;;;;;;;;;;;;;;;;;;5104628;28;20402;-82
2023/08/08 01:03:14;;;;;;;;;;;;;;;;;;5099980;28;19927;-83
2023/08/08 01:05:40;;;;;;;;;;;;;;;;;;5104678;28;19924;-84
2023/08/08 01:08:06;;;;;;;;;;;;;;;;;;5083773;27;19931;-81
2023/08/08 01:10:32;;;;;;;;;;;;;;;;;;5077236;28;20076;-81
2023/08/08 01:12:59;;;;;;;;;;;;;;;;;;5088631;27;20774;-81
2023/08/08 01:15:25;;;;;;;;;;;;;;;;;;5119623;27;19928;-84
2023/08/08 01:17:50;;;;;;;;;;;;;;;;;;5117539;27;19935;-84
2023/08/08 01:20:16;;;;;;;;;;;;;;;;;;5104188;27;21574;-81
2023/08/08 01:22:42;;;;;;;;;;;;;;;;;;5080142;27;19923;-80
2023/08/08 01:25:08;;;;;;;;;;;;;;;;;;5077037;28;20272;-81
2023/08/08 01:27:34;;;;;;;;;;;;;;;;;;5076246;28;19924;-81
2023/08/08 01:30:00;;;;;;;;;;;;;;;;;;5075132;27;19924;-81
2023/08/08 01:32:26;;;;;;;;;;;;;;;;;;5079300;28;20414;-82
2023/08/08 01:34:52;;;;;;;;;;;;;;;;;;5077716;28;19928;-81
2023/08/08 01:37:18;;;;;;;;;;;;;;;;;;5099835;27;19928;-81
2023/08/08 01:39:44;;;;;;;;;;;;;;;;;;5074247;28;19932;-82
2023/08/08 01:42:09;;;;;;;;;;;;;;;;;;5104966;27;19978;-80
2023/08/08 01:44:35;;;;;;;;;;;;;;;;;;5088066;28;20744;-81
2023/08/08 01:47:01;;;;;;;;;;;;;;;;;;5069642;28;19924;-81
2023/08/08 01:49:27;;;;;;;;;;;;;;;;;;5091004;27;20374;-81
2023/08/08 01:51:53;;;;;;;;;;;;;;;;;;5095029;27;19928;-81
2023/08/08 01:54:19;;;;;;;;;;;;;;;;;;5095981;27;19927;-81
2023/08/08 01:56:45;;;;;;;;;;;;;;;;;;5104692;27;19934;-81
2023/08/08 01:59:11;;;;;;;;;;;;;;;;;;5092075;28;19985;-80
2023/08/08 02:01:37;;;;;;;;;;;;;;;;;;5098158;27;19971;-80
2023/08/08 02:04:03;;;;;;;;;;;;;;;;;;5077654;28;19927;-80
2023/08/08 02:06:29;;;;;;;;;;;;;;;;;;5075564;28;19943;-81
2023/08/08 02:08:55;;;;;;;;;;;;;;;;;;5103975;27;19927;-80
2023/08/08 02:11:21;;;;;;;;;;;;;;;;;;5076432;28;20375;-80
2023/08/08 02:13:47;;;;;;;;;;;;;;;;;;5096456;27;19935;-82
2023/08/08 02:16:13;;;;;;;;;;;;;;;;;;5091563;27;19928;-80
2023/08/08 02:18:40;;;;;;;;;;;;;;;;;;5084479;28;19934;-80
2023/08/08 02:21:06;;;;;;;;;;;;;;;;;;5094676;27;19930;-79
2023/08/08 02:23:32;;;;;;;;;;;;;;;;;;5077268;28;19931;-80
2023/08/08 02:25:58;;;;;;;;;;;;;;;;;;5080557;28;20026;-80
2023/08/08 02:28:24;;;;;;;;;;;;;;;;;;5105591;27;19935;-80
2023/08/08 02:30:50;;;;;;;;;;;;;;;;;;5076290;28;20383;-81
2023/08/08 02:33:16;;;;;;;;;;;;;;;;;;5077393;28;19975;-81
2023/08/08 02:35:41;;;;;;;;;;;;;;;;;;5095292;27;21343;-81
2023/08/08 02:38:07;;;;;;;;;;;;;;;;;;5095522;28;19993;-80
2023/08/08 02:40:33;;;;;;;;;;;;;;;;;;5077418;28;20000;-81
2023/08/08 02:42:59;;;;;;;;;;;;;;;;;;5079083;28;19934;-79
2023/08/08 02:45:25;;;;;;;;;;;;;;;;;;5097633;28;19930;-81
2023/08/08 02:47:51;;;;;;;;;;;;;;;;;;5094747;28;19928;-81
2023/08/08 02:50:17;;;;;;;;;;;;;;;;;;5096219;28;20007;-79
2023/08/08 02:52:43;;;;;;;;;;;;;;;;;;5094204;28;19928;-80
2023/08/08 02:55:12;;;;;;;;;;;;;;;;;;5096447;27;19935;-80
2023/08/08 02:57:38;;;;;;;;;;;;;;;;;;5072532;27;19927;-81
2023/08/08 03:00:04;;;;;;;;;;;;;;;;;;5092531;27;21114;-81
2023/08/08 03:02:30;;;;;;;;;;;;;;;;;;5080912;28;19926;-80
2023/08/08 03:04:56;;;;;;;;;;;;;;;;;;5083717;28;19923;-81
2023/08/08 03:07:22;;;;;;;;;;;;;;;;;;5105197;27;19928;-82
2023/08/08 03:09:48;;;;;;;;;;;;;;;;;;5086489;27;19928;-84
2023/08/08 03:12:14;;;;;;;;;;;;;;;;;;5101816;28;20034;-86
2023/08/08 03:14:39;;;;;;;;;;;;;;;;;;5102731;28;19928;-84
2023/08/08 03:17:05;;;;;;;;;;;;;;;;;;5110464;27;19938;-81
2023/08/08 03:19:31;;;;;;;;;;;;;;;;;;5084529;28;20375;-81
2023/08/08 03:21:57;;;;;;;;;;;;;;;;;;5108764;27;19966;-82
2023/08/08 03:24:23;;;;;;;;;;;;;;;;;;5081964;28;19930;-82
2023/08/08 03:26:49;;;;;;;;;;;;;;;;;;5092679;28;19946;-84
2023/08/08 03:29:15;;;;;;;;;;;;;;;;;;5079842;28;20057;-83
2023/08/08 03:31:41;;;;;;;;;;;;;;;;;;5085609;27;19931;-82
2023/08/08 03:34:07;;;;;;;;;;;;;;;;;;5074821;28;19935;-82
2023/08/08 03:36:32;;;;;;;;;;;;;;;;;;5080161;28;20379;-82
2023/08/08 03:38:58;;;;;;;;;;;;;;;;;;5076339;28;20011;-85
2023/08/08 03:41:24;;;;;;;;;;;;;;;;;;5094412;27;20307;-81
2023/08/08 03:43:50;;;;;;;;;;;;;;;;;;5094370;27;19928;-81
2023/08/08 03:46:16;;;;;;;;;;;;;;;;;;5084791;27;19935;-82
2023/08/08 03:48:42;;;;;;;;;;;;;;;;;;5090726;28;19951;-83
2023/08/08 03:51:08;;;;;;;;;;;;;;;;;;5071225;28;20017;-80
2023/08/08 03:53:34;;;;;;;;;;;;;;;;;;5088062;28;19967;-80
2023/08/08 03:56:00;;;;;;;;;;;;;;;;;;5071869;28;19932;-81
2023/08/08 03:58:26;;;;;;;;;;;;;;;;;;5095799;28;19989;-82
2023/08/08 04:00:52;;;;;;;;;;;;;;;;;;5097226;27;19931;-80
2023/08/08 04:03:18;;;;;;;;;;;;;;;;;;5098496;28;20323;-82
2023/08/08 04:05:46;;;;;;;;;;;;;;;;;;5071085;28;19924;-81
2023/08/08 04:08:12;;;;;;;;;;;;;;;;;;5091417;28;19927;-84
2023/08/08 04:10:37;;;;;;;;;;;;;;;;;;5093072;28;19924;-81
2023/08/08 04:13:03;;;;;;;;;;;;;;;;;;5093510;28;20368;-80
2023/08/08 04:15:29;;;;;;;;;;;;;;;;;;5077541;28;19985;-84
2023/08/08 04:17:55;;;;;;;;;;;;;;;;;;5092502;28;19970;-80
2023/08/08 04:20:21;;;;;;;;;;;;;;;;;;5076231;28;19967;-80
2023/08/08 04:22:47;;;;;;;;;;;;;;;;;;5094349;28;19942;-81
2023/08/08 04:25:13;;;;;;;;;;;;;;;;;;5092988;28;19928;-80
2023/08/08 04:27:39;;;;;;;;;;;;;;;;;;5077297;28;19928;-80
2023/08/08 04:30:05;;;;;;;;;;;;;;;;;;5078335;28;19927;-81
2023/08/08 04:32:31;;;;;;;;;;;;;;;;;;5103503;27;20305;-81
2023/08/08 04:34:57;;;;;;;;;;;;;;;;;;5068980;27;19928;-80
2023/08/08 04:37:23;;;;;;;;;;;;;;;;;;5080450;28;19928;-80
2023/08/08 04:39:48;;;;;;;;;;;;;;;;;;5103618;27;19932;-80
2023/08/08 04:42:14;;;;;;;;;;;;;;;;;;5092960;27;19928;-80
2023/08/08 04:44:40;;;;;;;;;;;;;;;;;;5075018;28;19989;-80
2023/08/08 04:47:06;;;;;;;;;;;;;;;;;;5095933;27;20375;-82
2023/08/08 04:49:32;;;;;;;;;;;;;;;;;;5080560;28;19931;-80
2023/08/08 04:51:58;;;;;;;;;;;;;;;;;;5073666;28;19935;-80
2023/08/08 04:54:24;;;;;;;;;;;;;;;;;;5092164;28;20041;-80
2023/08/08 04:56:50;;;;;;;;;;;;;;;;;;5113435;27;20306;-80
2023/08/08 04:59:16;;;;;;;;;;;;;;;;;;5105741;27;20707;-79
2023/08/08 05:01:41;;;;;;;;;;;;;;;;;;5083198;27;19930;-79
2023/08/08 05:04:07;;;;;;;;;;;;;;;;;;5074630;28;20066;-80
2023/08/08 05:06:33;;;;;;;;;;;;;;;;;;5078826;28;19972;-80
2023/08/08 05:08:59;;;;;;;;;;;;;;;;;;5077784;28;19977;-79
2023/08/08 05:11:26;;;;;;;;;;;;;;;;;;5077206;28;20000;-81
2023/08/08 05:13:51;;;;;;;;;;;;;;;;;;5090480;28;19935;-80
2023/08/08 05:16:17;;;;;;;;;;;;;;;;;;5091676;27;19932;-80
2023/08/08 05:18:46;;;;;;;;;;;;;;;;;;5079860;28;19935;-80
2023/08/08 05:21:12;;;;;;;;;;;;;;;;;;5088205;27;19934;-84
2023/08/08 05:23:38;;;;;;;;;;;;;;;;;;5112203;27;19927;-80
2023/08/08 05:26:04;;;;;;;;;;;;;;;;;;5074651;28;20453;-79
2023/08/08 05:28:30;;;;;;;;;;;;;;;;;;5112610;27;20026;-80
2023/08/08 05:30:56;;;;;;;;;;;;;;;;;;5080315;28;19934;-80
2023/08/08 05:33:22;;;;;;;;;;;;;;;;;;5083311;28;19923;-80
2023/08/08 05:35:48;;;;;;;;;;;;;;;;;;5073127;28;19977;-80
2023/08/08 05:38:14;;;;;;;;;;;;;;;;;;5097013;27;19924;-81
2023/08/08 05:40:39;;;;;;;;;;;;;;;;;;5071997;28;19928;-80
2023/08/08 05:43:05;;;;;;;;;;;;;;;;;;5086455;28;20042;-81
2023/08/08 05:45:31;;;;;;;;;;;;;;;;;;5088595;27;19975;-80
2023/08/08 05:47:59;;;;;;;;;;;;;;;;;;5091513;28;19924;-81
2023/08/08 05:50:25;;;;;;;;;;;;;;;;;;5100355;27;19949;-81
2023/08/08 05:52:51;;;;;;;;;;;;;;;;;;5097733;27;19928;-80
2023/08/08 05:55:17;;;;;;;;;;;;;;;;;;5067337;27;19972;-80
2023/08/08 05:57:43;;;;;;;;;;;;;;;;;;5095448;27;19928;-81
2023/08/08 06:00:11;;;;;;;;;;;;;;;;;;5080421;27;19943;-81
2023/08/08 06:02:37;;;;;;;;;;;;;;;;;;5076091;28;20014;-80
2023/08/08 06:05:02;;;;;;;;;;;;;;;;;;5073921;28;20275;-80
2023/08/08 06:07:28;;;;;;;;;;;;;;;;;;5079984;28;20379;-81
2023/08/08 06:09:54;;;;;;;;;;;;;;;;;;5073904;28;19935;-79
2023/08/08 06:12:20;;;;;;;;;;;;;;;;;;5076938;27;20703;-80
2023/08/08 06:14:47;;;;;;;;;;;;;;;;;;5079922;28;19962;-80
2023/08/08 06:17:13;;;;;;;;;;;;;;;;;;5110435;27;19928;-79
2023/08/08 06:19:39;;;;;;;;;;;;;;;;;;5071977;28;19932;-79
2023/08/08 06:22:05;;;;;;;;;;;;;;;;;;5075635;28;19928;-79
2023/08/08 06:24:31;;;;;;;;;;;;;;;;;;5077077;28;20379;-82
2023/08/08 06:26:57;;;;;;;;;;;;;;;;;;5069145;27;19928;-79
2023/08/08 06:29:23;;;;;;;;;;;;;;;;;;5084427;27;20449;-81
2023/08/08 06:31:49;;;;;;;;;;;;;;;;;;5055146;27;19927;-85
2023/08/08 06:34:15;;;;;;;;;;;;;;;;;;5103154;27;19981;-81
2023/08/08 06:36:42;;;;;;;;;;;;;;;;;;5075259;28;20030;-80
2023/08/08 06:39:08;;;;;;;;;;;;;;;;;;5100818;28;19927;-79
2023/08/08 06:41:34;;;;;;;;;;;;;;;;;;5064819;27;19927;-78
2023/08/08 06:44:00;;;;;;;;;;;;;;;;;;5073222;28;20778;-79
2023/08/08 06:46:26;;;;;;;;;;;;;;;;;;5075576;27;19927;-80
2023/08/08 06:48:58;;;;;;;;;;;;;;;;;;5082204;28;19923;-79
2023/08/08 06:51:24;;;;;;;;;;;;;;;;;;5117476;27;19928;-80
2023/08/08 06:53:50;;;;;;;;;;;;;;;;;;5102669;28;19947;-80
2023/08/08 06:56:16;;;;;;;;;;;;;;;;;;5082520;28;20302;-78
2023/08/08 06:58:43;;;;;;;;;;;;;;;;;;5094951;28;19984;-79
2023/08/08 07:01:09;;;;;;;;;;;;;;;;;;5089719;28;19924;-82
2023/08/08 07:03:35;;;;;;;;;;;;;;;;;;5099514;27;19928;-80
2023/08/08 07:06:02;;;;;;;;;;;;;;;;;;5095052;27;19939;-79
2023/08/08 07:08:29;;;;;;;;;;;;;;;;;;5075427;28;19928;-80
2023/08/08 07:10:55;;;;;;;;;;;;;;;;;;5102436;27;19927;-79
2023/08/08 07:13:21;;;;;;;;;;;;;;;;;;5102559;27;20408;-82
2023/08/08 07:15:47;;;;;;;;;;;;;;;;;;5089312;28;19959;-79
2023/08/08 07:18:13;;;;;;;;;;;;;;;;;;5093516;28;20417;-79
2023/08/08 07:20:39;;;;;;;;;;;;;;;;;;5115220;27;19927;-79
2023/08/08 07:23:05;;;;;;;;;;;;;;;;;;5094652;27;20018;-80
2023/08/08 07:25:31;;;;;;;;;;;;;;;;;;5112058;27;20006;-80
2023/08/08 07:27:56;;;;;;;;;;;;;;;;;;5100237;28;19957;-80
2023/08/08 07:30:22;;;;;;;;;;;;;;;;;;5071489;28;19942;-80
2023/08/08 07:32:48;;;;;;;;;;;;;;;;;;5084242;27;19928;-80
2023/08/08 07:35:15;;;;;;;;;;;;;;;;;;5080800;27;20483;-79
2023/08/08 07:37:41;;;;;;;;;;;;;;;;;;5098642;27;20035;-79
2023/08/08 07:40:08;;;;;;;;;;;;;;;;;;5095829;27;19932;-79
2023/08/08 07:42:33;;;;;;;;;;;;;;;;;;5080397;28;20004;-80
2023/08/08 07:44:59;;;;;;;;;;;;;;;;;;5077758;27;20387;-80
2023/08/08 07:47:25;;;;;;;;;;;;;;;;;;5077108;28;19970;-80
2023/08/08 07:49:51;;;;;;;;;;;;;;;;;;5077754;28;20291;-79
2023/08/08 07:52:17;;;;;;;;;;;;;;;;;;5081561;28;19935;-82
2023/08/08 07:54:43;;;;;;;;;;;;;;;;;;5103380;27;20024;-79
2023/08/08 07:57:10;;;;;;;;;;;;;;;;;;5096490;27;19932;-80
2023/08/08 07:59:36;;;;;;;;;;;;;;;;;;5077499;28;19934;-79
2023/08/08 08:02:02;;;;;;;;;;;;;;;;;;5059078;28;19924;-80
2023/08/08 08:04:28;;;;;;;;;;;;;;;;;;5077825;28;19962;-80
2023/08/08 08:06:54;;;;;;;;;;;;;;;;;;5055109;28;20793;-79
2023/08/08 08:09:20;;;;;;;;;;;;;;;;;;5093079;28;19984;-79
2023/08/08 08:11:46;;;;;;;;;;;;;;;;;;5077860;28;19928;-80
2023/08/08 08:14:12;;;;;;;;;;;;;;;;;;5056118;28;20390;-83
2023/08/08 08:16:38;;;;;;;;;;;;;;;;;;5077485;28;19938;-79
2023/08/08 08:19:04;;;;;;;;;;;;;;;;;;5093791;28;19927;-80
2023/08/08 08:21:30;;;;;;;;;;;;;;;;;;5073261;28;20698;-80
2023/08/08 08:23:56;;;;;;;;;;;;;;;;;;5089733;28;19927;-81
2023/08/08 08:26:21;;;;;;;;;;;;;;;;;;5096307;28;20010;-80
2023/08/08 08:28:48;;;;;;;;;;;;;;;;;;5090139;28;20319;-79
2023/08/08 08:31:14;;;;;;;;;;;;;;;;;;5060882;28;20604;-78
2023/08/08 08:33:40;;;;;;;;;;;;;;;;;;5077683;28;19938;-78
2023/08/08 08:36:06;;;;;;;;;;;;;;;;;;5059379;28;20005;-78
2023/08/08 08:38:32;;;;;;;;;;;;;;;;;;5061025;28;19927;-79
2023/08/08 08:40:58;;;;;;;;;;;;;;;;;;5075060;28;19927;-78
2023/08/08 08:43:24;;;;;;;;;;;;;;;;;;5098906;28;20000;-80
2023/08/08 08:45:50;;;;;;;;;;;;;;;;;;5090021;28;20701;-78
2023/08/08 08:48:16;;;;;;;;;;;;;;;;;;5099959;28;20424;-82
2023/08/08 08:50:42;;;;;;;;;;;;;;;;;;5096397;28;19928;-79
2023/08/08 08:53:08;;;;;;;;;;;;;;;;;;5095058;28;21101;-77
2023/08/08 08:55:34;;;;;;;;;;;;;;;;;;5093757;28;19928;-78
2023/08/08 08:58:00;;;;;;;;;;;;;;;;;;5077037;28;19935;-78
2023/08/08 09:00:26;;;;;;;;;;;;;;;;;;5082569;28;20540;-77
2023/08/08 09:02:55;;;;;;;;;;;;;;;;;;5077011;28;19931;-77
2023/08/08 09:05:21;;;;;;;;;;;;;;;;;;5094909;28;19928;-78
2023/08/08 09:07:47;;;;;;;;;;;;;;;;;;5093995;28;19934;-77
2023/08/08 09:10:13;;;;;;;;;;;;;;;;;;5080153;28;19932;-78
2023/08/08 09:12:39;;;;;;;;;;;;;;;;;;5080523;28;19927;-77
2023/08/08 09:15:05;;;;;;;;;;;;;;;;;;5063826;28;19935;-77
2023/08/08 09:17:31;;;;;;;;;;;;;;;;;;5082150;28;19928;-80
2023/08/08 09:20:00;;;;;;;;;;;;;;;;;;5097454;27;19985;-78
2023/08/08 09:22:27;;;;;;;;;;;;;;;;;;5076923;28;20386;-78
2023/08/08 09:24:53;;;;;;;;;;;;;;;;;;5080592;28;20644;-78
2023/08/08 09:27:19;;;;;;;;;;;;;;;;;;5084335;27;19935;-78
2023/08/08 09:29:45;;;;;;;;;;;;;;;;;;5099319;27;19931;-79
2023/08/08 09:32:12;;;;;;;;;;;;;;;;;;5097952;27;20361;-79
2023/08/08 09:34:38;;;;;;;;;;;;;;;;;;5092233;27;20862;-77
2023/08/08 09:37:05;;;;;;;;;;;;;;;;;;5096285;27;19954;-78
2023/08/08 09:39:31;;;;;;;;;;;;;;;;;;5092747;27;19973;-78
2023/08/08 09:41:57;;;;;;;;;;;;;;;;;;5095370;27;19928;-79
2023/08/08 09:44:23;;;;;;;;;;;;;;;;;;5097873;27;19942;-78
2023/08/08 09:46:49;;;;;;;;;;;;;;;;;;5111170;27;20687;-78
2023/08/08 09:49:15;;;;;;;;;;;;;;;;;;5066046;28;19931;-80
2023/08/08 09:51:41;;;;;;;;;;;;;;;;;;5076072;27;19928;-79
2023/08/08 09:54:07;;;;;;;;;;;;;;;;;;5081584;28;20376;-78
2023/08/08 09:56:33;;;;;;;;;;;;;;;;;;5099444;27;19924;-78
2023/08/08 09:58:59;;;;;;;;;;;;;;;;;;5097742;28;19984;-79
2023/08/08 10:01:25;;;;;;;;;;;;;;;;;;5098051;27;19935;-80
2023/08/08 10:03:51;;;;;;;;;;;;;;;;;;5094468;27;19967;-79
2023/08/08 10:06:16;;;;;;;;;;;;;;;;;;5077240;27;19928;-78
2023/08/08 10:08:42;;;;;;;;;;;;;;;;;;5074636;28;20420;-79
2023/08/08 10:11:10;;;;;;;;;;;;;;;;;;5090782;27;20196;-79
2023/08/08 10:13:36;;;;;;;;;;;;;;;;;;5074811;27;19924;-78
2023/08/08 10:16:01;;;;;;;;;;;;;;;;;;5097915;27;19927;-79
2023/08/08 10:18:27;;;;;;;;;;;;;;;;;;5082090;28;20467;-80
2023/08/08 10:20:54;;;;;;;;;;;;;;;;;;5078025;27;19939;-79
2023/08/08 10:23:19;;;;;;;;;;;;;;;;;;5103241;27;20874;-79
2023/08/08 10:25:45;;;;;;;;;;;;;;;;;;5097896;28;20313;-79
2023/08/08 10:28:13;;;;;;;;;;;;;;;;;;5097466;27;21223;-80
2023/08/08 10:30:39;;;;;;;;;;;;;;;;;;5095696;28;19932;-79
2023/08/08 10:33:05;;;;;;;;;;;;;;;;;;5101144;27;20389;-79
2023/08/08 10:35:31;;;;;;;;;;;;;;;;;;5095171;27;20018;-78
2023/08/08 10:37:57;;;;;;;;;;;;;;;;;;5105219;27;19927;-79
2023/08/08 10:40:22;;;;;;;;;;;;;;;;;;5089922;27;19946;-79
2023/08/08 10:42:48;;;;;;;;;;;;;;;;;;5097651;27;20390;-79
2023/08/08 10:45:14;;;;;;;;;;;;;;;;;;5094018;27;19931;-78
2023/08/08 10:47:40;;;;;;;;;;;;;;;;;;5099855;27;19923;-79
2023/08/08 10:50:07;;;;;;;;;;;;;;;;;;5104029;27;20428;-79
2023/08/08 10:52:35;;;;;;;;;;;;;;;;;;5091430;27;20607;-78
2023/08/08 10:55:01;;;;;;;;;;;;;;;;;;5096140;27;20069;-79
2023/08/08 10:57:26;;;;;;;;;;;;;;;;;;5073483;28;19928;-79
2023/08/08 10:59:53;;;;;;;;;;;;;;;;;;5074308;28;20874;-78
2023/08/08 11:02:19;;;;;;;;;;;;;;;;;;5094338;27;19923;-78
2023/08/08 11:04:45;;;;;;;;;;;;;;;;;;5093367;27;19927;-78
2023/08/08 11:07:11;;;;;;;;;;;;;;;;;;5078498;28;20751;-80
2023/08/08 11:09:37;;;;;;;;;;;;;;;;;;5080716;27;19928;-80
2023/08/08 11:12:03;;;;;;;;;;;;;;;;;;5092560;27;19935;-80
2023/08/08 11:14:29;;;;;;;;;;;;;;;;;;5071755;28;19962;-82
2023/08/08 11:16:55;;;;;;;;;;;;;;;;;;5090533;28;20509;-78
2023/08/08 11:19:22;;;;;;;;;;;;;;;;;;5067940;28;19958;-79
2023/08/08 11:21:48;;;;;;;;;;;;;;;;;;5087803;27;19932;-78
2023/08/08 11:24:14;;;;;;;;;;;;;;;;;;5066576;28;20882;-79
2023/08/08 11:26:40;;;;;;;;;;;;;;;;;;5073151;28;19951;-79
2023/08/08 11:29:06;;;;;;;;;;;;;;;;;;5090066;27;19956;-82
2023/08/08 11:31:32;;;;;;;;;;;;;;;;;;5094026;27;19935;-80
2023/08/08 11:33:59;;;;;;;;;;;;;;;;;;5079473;28;19995;-79
2023/08/08 11:36:24;;;;;;;;;;;;;;;;;;5073632;28;19927;-77
2023/08/08 11:38:50;;;;;;;;;;;;;;;;;;5098030;27;19978;-78
2023/08/08 11:41:16;;;;;;;;;;;;;;;;;;5072277;27;19932;-78
2023/08/08 11:43:42;;;;;;;;;;;;;;;;;;5105906;27;20489;-78
2023/08/08 11:46:09;;;;;;;;;;;;;;;;;;5068358;28;20046;-79
2023/08/08 11:48:35;;;;;;;;;;;;;;;;;;5095513;28;19942;-78
2023/08/08 11:51:01;;;;;;;;;;;;;;;;;;5098731;27;19931;-80
2023/08/08 11:53:27;;;;;;;;;;;;;;;;;;5078322;28;19927;-79
2023/08/08 11:55:53;;;;;;;;;;;;;;;;;;5081109;28;19928;-80
2023/08/08 11:58:19;;;;;;;;;;;;;;;;;;5094900;28;19927;-78
2023/08/08 12:00:45;;;;;;;;;;;;;;;;;;5107286;27;20333;-80
2023/08/08 12:03:14;;;;;;;;;;;;;;;;;;5075233;28;20029;-78
2023/08/08 12:05:40;;;;;;;;;;;;;;;;;;5062236;28;19938;-79
2023/08/08 12:08:06;;;;;;;;;;;;;;;;;;5075774;28;20011;-79
2023/08/08 12:10:32;;;;;;;;;;;;;;;;;;5079036;28;20620;-78
2023/08/08 12:12:59;;;;;;;;;;;;;;;;;;5077362;28;20008;-78
2023/08/08 12:15:25;;;;;;;;;;;;;;;;;;5076964;28;20018;-79
2023/08/08 12:17:51;;;;;;;;;;;;;;;;;;5096116;28;19938;-80
2023/08/08 12:20:17;;;;;;;;;;;;;;;;;;5074632;28;19927;-78
2023/08/08 12:22:43;;;;;;;;;;;;;;;;;;5093341;28;19928;-79
2023/08/08 12:25:09;;;;;;;;;;;;;;;;;;5092607;28;19931;-78
2023/08/08 12:27:35;;;;;;;;;;;;;;;;;;5091998;28;19938;-79
2023/08/08 12:30:01;;;;;;;;;;;;;;;;;;5077968;28;20849;-80
2023/08/08 12:32:28;;;;;;;;;;;;;;;;;;5096063;27;19934;-79
2023/08/08 12:34:54;;;;;;;;;;;;;;;;;;5091295;28;19990;-79
2023/08/08 12:37:20;;;;;;;;;;;;;;;;;;5096188;28;20653;-79
2023/08/08 12:39:48;;;;;;;;;;;;;;;;;;5096439;28;19928;-78
2023/08/08 12:42:14;;;;;;;;;;;;;;;;;;5088077;28;19932;-78
2023/08/08 12:44:40;;;;;;;;;;;;;;;;;;5095668;28;20113;-79
2023/08/08 12:47:06;;;;;;;;;;;;;;;;;;5097793;28;20394;-78
2023/08/08 12:49:32;;;;;;;;;;;;;;;;;;5099223;27;19928;-83
2023/08/08 12:51:58;;;;;;;;;;;;;;;;;;5092907;27;19927;-79
2023/08/08 12:54:24;;;;;;;;;;;;;;;;;;5098596;27;20544;-78
2023/08/08 12:56:50;;;;;;;;;;;;;;;;;;5086693;27;20045;-78
2023/08/08 12:59:16;;;;;;;;;;;;;;;;;;5079673;27;19932;-78
2023/08/08 13:01:41;;;;;;;;;;;;;;;;;;5074073;27;20018;-78
2023/08/08 13:04:07;;;;;;;;;;;;;;;;;;5078487;28;20401;-79
2023/08/08 13:06:33;;;;;;;;;;;;;;;;;;5079281;27;20431;-78
2023/08/08 13:08:59;;;;;;;;;;;;;;;;;;5115420;27;19924;-78
2023/08/08 13:11:25;;;;;;;;;;;;;;;;;;5101873;27;19946;-81
2023/08/08 13:13:54;;;;;;;;;;;;;;;;;;5075790;27;19973;-79
2023/08/08 13:16:20;;;;;;;;;;;;;;;;;;5099638;27;20575;-80
2023/08/08 13:18:46;;;;;;;;;;;;;;;;;;5095843;27;19982;-79
2023/08/08 13:21:13;;;;;;;;;;;;;;;;;;5079774;28;19932;-79
2023/08/08 13:23:39;;;;;;;;;;;;;;;;;;5099918;27;19971;-81
2023/08/08 13:26:05;;;;;;;;;;;;;;;;;;5079754;28;21423;-80
2023/08/08 13:28:31;;;;;;;;;;;;;;;;;;5078135;27;20022;-79
2023/08/08 13:30:57;;;;;;;;;;;;;;;;;;5100282;27;19963;-82
2023/08/08 13:33:23;;;;;;;;;;;;;;;;;;5068105;28;19967;-83
2023/08/08 13:35:49;;;;;;;;;;;;;;;;;;5098014;28;19939;-83
2023/08/08 13:38:15;;;;;;;;;;;;;;;;;;5081195;28;19931;-82
2023/08/08 13:40:41;;;;;;;;;;;;;;;;;;5065268;28;19928;-83
2023/08/08 13:43:08;;;;;;;;;;;;;;;;;;5062789;28;19923;-82
2023/08/08 13:45:34;;;;;;;;;;;;;;;;;;5085630;27;20641;-83
2023/08/08 13:48:00;;;;;;;;;;;;;;;;;;5064108;28;19927;-83
2023/08/08 13:50:26;;;;;;;;;;;;;;;;;;5082466;28;19998;-83
2023/08/08 13:52:53;;;;;;;;;;;;;;;;;;5081142;28;19970;-84
2023/08/08 13:55:19;;;;;;;;;;;;;;;;;;5086732;28;19927;-83
2023/08/08 13:57:44;;;;;;;;;;;;;;;;;;5080418;28;19931;-82
2023/08/08 14:00:12;;;;;;;;;;;;;;;;;;5080359;27;19932;-83
2023/08/08 14:02:38;;;;;;;;;;;;;;;;;;5084405;28;20049;-84
2023/08/08 14:05:06;;;;;;;;;;;;;;;;;;5082107;27;20268;-82
2023/08/08 14:07:32;;;;;;;;;;;;;;;;;;5082481;28;20006;-83
2023/08/08 14:09:58;;;;;;;;;;;;;;;;;;5079517;28;19927;-83
2023/08/08 14:12:23;;;;;;;;;;;;;;;;;;5082770;28;19950;-82
2023/08/08 14:14:49;;;;;;;;;;;;;;;;;;5096537;28;20281;-83
2023/08/08 14:17:15;;;;;;;;;;;;;;;;;;5080323;27;19932;-82
2023/08/08 14:19:41;;;;;;;;;;;;;;;;;;5079241;28;20407;-81
2023/08/08 14:22:07;;;;;;;;;;;;;;;;;;5073812;27;19986;-80
2023/08/08 14:24:33;;;;;;;;;;;;;;;;;;5064322;28;20385;-81
2023/08/08 14:26:59;;;;;;;;;;;;;;;;;;5080625;28;20018;-81
2023/08/08 14:29:25;;;;;;;;;;;;;;;;;;5084618;28;19923;-80
2023/08/08 14:31:51;;;;;;;;;;;;;;;;;;5079229;28;19924;-80
2023/08/08 14:34:17;;;;;;;;;;;;;;;;;;5081531;28;19931;-79
2023/08/08 14:36:43;;;;;;;;;;;;;;;;;;5080224;28;19927;-80
2023/08/08 14:39:08;;;;;;;;;;;;;;;;;;5064063;28;20042;-80
2023/08/08 14:41:34;;;;;;;;;;;;;;;;;;5074771;28;20618;-80
2023/08/08 14:44:00;;;;;;;;;;;;;;;;;;5099471;28;19973;-82
2023/08/08 14:46:26;;;;;;;;;;;;;;;;;;5079137;28;20022;-80
2023/08/08 14:48:52;;;;;;;;;;;;;;;;;;5097312;28;19934;-80
2023/08/08 14:51:19;;;;;;;;;;;;;;;;;;5075568;27;19928;-80
2023/08/08 14:53:45;;;;;;;;;;;;;;;;;;5060211;28;19926;-80
2023/08/08 14:56:11;;;;;;;;;;;;;;;;;;5080423;28;19936;-80
2023/08/08 14:58:37;;;;;;;;;;;;;;;;;;5062589;28;20020;-80
2023/08/08 15:01:03;;;;;;;;;;;;;;;;;;5095777;27;20339;-80
2023/08/08 15:03:29;;;;;;;;;;;;;;;;;;5096656;28;20783;-80
2023/08/08 15:05:55;;;;;;;;;;;;;;;;;;5060769;28;20022;-80
2023/08/08 15:08:23;;;;;;;;;;;;;;;;;;5084921;28;20052;-80
2023/08/08 15:10:50;;;;;;;;;;;;;;;;;;5063186;28;19928;-80
2023/08/08 15:13:16;;;;;;;;;;;;;;;;;;5078877;28;19939;-80
2023/08/08 15:15:42;;;;;;;;;;;;;;;;;;5060754;28;19927;-80
2023/08/08 15:18:08;;;;;;;;;;;;;;;;;;5079720;27;19931;-79
2023/08/08 15:20:34;;;;;;;;;;;;;;;;;;5097323;27;19928;-80
2023/08/08 15:22:59;;;;;;;;;;;;;;;;;;5079396;28;19927;-80
2023/08/08 15:25:25;;;;;;;;;;;;;;;;;;5061936;28;19974;-79
2023/08/08 15:27:51;;;;;;;;;;;;;;;;;;5079243;27;19947;-80
2023/08/08 15:30:17;;;;;;;;;;;;;;;;;;5078368;28;19935;-80
2023/08/08 15:32:43;;;;;;;;;;;;;;;;;;5061407;28;19920;-81
2023/08/08 15:35:09;;;;;;;;;;;;;;;;;;5077254;27;19939;-81
2023/08/08 15:37:37;;;;;;;;;;;;;;;;;;5075455;28;20046;-80
2023/08/08 15:40:06;;;;;;;;;;;;;;;;;;5078013;28;19927;-81
2023/08/08 15:42:32;;;;;;;;;;;;;;;;;;5078339;28;19928;-81
2023/08/08 15:44:57;;;;;;;;;;;;;;;;;;5097926;27;19927;-81
2023/08/08 15:47:23;;;;;;;;;;;;;;;;;;5078868;27;19968;-80
2023/08/08 15:49:49;;;;;;;;;;;;;;;;;;5085026;28;19946;-80
2023/08/08 15:52:15;;;;;;;;;;;;;;;;;;5077939;28;19936;-80
2023/08/08 15:54:41;;;;;;;;;;;;;;;;;;5080671;28;19927;-80
2023/08/08 15:57:07;;;;;;;;;;;;;;;;;;5090254;28;20064;-80
2023/08/08 15:59:33;;;;;;;;;;;;;;;;;;5075649;28;20081;-80
2023/08/08 16:01:59;;;;;;;;;;;;;;;;;;5073257;28;20294;-80
2023/08/08 16:04:25;;;;;;;;;;;;;;;;;;5059742;28;19928;-81
2023/08/08 16:06:51;;;;;;;;;;;;;;;;;;5074555;28;19923;-80
2023/08/08 16:09:17;;;;;;;;;;;;;;;;;;5069650;28;21204;-80
2023/08/08 16:11:43;;;;;;;;;;;;;;;;;;5083240;28;20044;-79
2023/08/08 16:14:09;;;;;;;;;;;;;;;;;;5079949;28;19932;-81
2023/08/08 16:16:34;;;;;;;;;;;;;;;;;;5100861;27;20229;-80
2023/08/08 16:19:00;;;;;;;;;;;;;;;;;;5070345;28;19932;-80
2023/08/08 16:21:26;;;;;;;;;;;;;;;;;;5072333;28;19939;-79
2023/08/08 16:23:52;;;;;;;;;;;;;;;;;;5102359;27;19954;-80
2023/08/08 16:26:18;;;;;;;;;;;;;;;;;;5073210;28;19928;-80
2023/08/08 16:28:44;;;;;;;;;;;;;;;;;;5076783;27;20372;-80
2023/08/08 16:31:10;;;;;;;;;;;;;;;;;;5072220;28;19986;-80
2023/08/08 16:33:36;;;;;;;;;;;;;;;;;;5073857;28;20387;-79
2023/08/08 16:36:02;;;;;;;;;;;;;;;;;;5092032;28;19928;-80
2023/08/08 16:38:28;;;;;;;;;;;;;;;;;;5073584;28;19977;-79